createdAt,value
2023-01-21T00:02:17.941Z,7.38
2023-01-21T00:04:44.307Z,9.48
2023-01-21T00:07:10.652Z,9.38
2023-01-21T00:09:37.001Z,8.80
2023-01-21T00:12:03.615Z,11.55
2023-01-21T00:14:30.168Z,10.00
2023-01-21T00:16:56.932Z,11.15
2023-01-21T00:19:23.171Z,8.57
2023-01-21T00:21:49.452Z,8.48
2023-01-21T00:24:15.820Z,7.05
2023-01-21T00:26:42.128Z,7.63
2023-01-21T00:29:09.914Z,8.43
2023-01-21T00:31:36.589Z,7.22
2023-01-21T00:34:02.887Z,4.40
2023-01-21T00:36:29.741Z,9.43
2023-01-21T00:38:56.489Z,10.45
2023-01-21T00:41:24.669Z,4.97
2023-01-21T00:43:51.088Z,7.35
2023-01-21T00:46:17.422Z,5.30
2023-01-21T00:48:43.783Z,9.68
2023-01-21T00:51:10.476Z,6.47
2023-01-21T00:53:38.316Z,8.75
2023-01-21T00:56:05.984Z,7.88
2023-01-21T00:58:32.848Z,7.50
2023-01-21T01:01:02.664Z,8.25
2023-01-21T01:03:29.004Z,5.93
2023-01-21T01:05:55.291Z,7.55
2023-01-21T01:08:21.600Z,7.25
2023-01-21T01:10:47.865Z,9.27
2023-01-21T01:13:14.147Z,7.18
2023-01-21T01:15:40.427Z,8.45
2023-01-21T01:18:06.706Z,6.93
2023-01-21T01:20:32.984Z,9.23
2023-01-21T01:22:59.291Z,8.43
2023-01-21T01:25:25.548Z,8.25
2023-01-21T01:27:51.785Z,8.73
2023-01-21T01:30:18.369Z,8.70
2023-01-21T01:32:44.786Z,7.95
2023-01-21T01:35:11.089Z,7.70
2023-01-21T01:37:37.340Z,7.85
2023-01-21T01:40:03.784Z,8.02
2023-01-21T01:42:30.007Z,6.10
2023-01-21T01:45:00.544Z,8.82
2023-01-21T01:47:49.917Z,7.47
2023-01-21T01:50:18.334Z,7.75
2023-01-21T01:52:45.289Z,8.82
2023-01-21T01:55:12.440Z,7.65
2023-01-21T01:57:40.729Z,8.82
2023-01-21T02:00:08.297Z,7.18
2023-01-21T02:02:34.780Z,8.90
2023-01-21T02:05:02.955Z,10.65
2023-01-21T02:07:30.242Z,7.05
2023-01-21T02:09:56.490Z,7.68
2023-01-21T02:12:23.031Z,6.68
2023-01-21T02:14:50.054Z,9.18
2023-01-21T02:17:25.491Z,7.95
2023-01-21T02:19:54.489Z,6.93
2023-01-21T02:22:39.087Z,6.47
2023-01-21T02:25:17.801Z,8.60
2023-01-21T02:27:51.693Z,7.57
2023-01-21T02:30:18.155Z,6.65
2023-01-21T02:32:56.735Z,7.50
2023-01-21T02:35:41.835Z,7.10
2023-01-21T02:38:26.534Z,6.25
2023-01-21T02:40:52.743Z,6.75
2023-01-21T02:43:28.392Z,6.82
2023-01-21T02:45:59.465Z,8.82
2023-01-21T02:48:34.234Z,9.35
2023-01-21T02:51:02.161Z,7.60
2023-01-21T02:53:36.042Z,6.65
2023-01-21T02:56:08.153Z,8.05
2023-01-21T02:58:36.759Z,7.10
2023-01-21T03:01:15.765Z,7.13
2023-01-21T03:03:41.986Z,8.13
2023-01-21T03:06:16.156Z,7.03
2023-01-21T03:08:45.254Z,8.38
2023-01-21T03:11:15.640Z,7.28
2023-01-21T03:14:01.984Z,9.27
2023-01-21T03:16:50.040Z,7.25
2023-01-21T03:19:17.277Z,7.78
2023-01-21T03:21:44.445Z,6.60
2023-01-21T03:24:12.502Z,7.50
2023-01-21T03:26:40.956Z,9.13
2023-01-21T03:29:09.328Z,6.50
2023-01-21T03:31:36.650Z,9.07
2023-01-21T03:34:06.176Z,7.85
2023-01-21T03:36:42.135Z,5.95
2023-01-21T03:39:34.860Z,7.57
2023-01-21T03:42:01.881Z,6.78
2023-01-21T03:44:28.114Z,6.03
2023-01-21T03:47:01.740Z,7.50
2023-01-21T03:49:28.023Z,6.57
2023-01-21T03:51:55.981Z,5.75
2023-01-21T03:54:22.472Z,7.72
2023-01-21T03:56:48.754Z,6.53
2023-01-21T03:59:15.180Z,7.93
2023-01-21T04:01:41.684Z,7.85
2023-01-21T04:04:08.494Z,6.97
2023-01-21T04:06:36.659Z,7.53
2023-01-21T04:09:03.944Z,8.15
2023-01-21T04:11:30.291Z,8.48
2023-01-21T04:13:56.566Z,7.88
2023-01-21T04:16:23.095Z,8.50
2023-01-21T04:18:49.438Z,7.40
2023-01-21T04:21:15.794Z,7.40
2023-01-21T04:23:42.073Z,7.90
2023-01-21T04:26:08.419Z,6.72
2023-01-21T04:28:34.694Z,7.75
2023-01-21T04:31:01.048Z,7.32
2023-01-21T04:33:27.380Z,5.75
2023-01-21T04:35:57.720Z,8.20
2023-01-21T04:38:24.076Z,7.30
2023-01-21T04:40:50.327Z,6.68
2023-01-21T04:43:16.972Z,7.25
2023-01-21T04:45:43.289Z,7.97
2023-01-21T04:48:09.634Z,7.55
2023-01-21T04:50:35.939Z,8.05
2023-01-21T04:53:02.279Z,7.82
2023-01-21T04:55:28.569Z,7.07
2023-01-21T04:57:54.853Z,8.60
2023-01-21T05:00:21.293Z,7.88
2023-01-21T05:02:47.674Z,6.78
2023-01-21T05:05:14.049Z,6.75
2023-01-21T05:07:40.334Z,8.02
2023-01-21T05:10:06.765Z,8.00
2023-01-21T05:12:33.044Z,7.32
2023-01-21T05:14:59.377Z,7.43
2023-01-21T05:17:25.755Z,7.43
2023-01-21T05:19:52.197Z,6.45
2023-01-21T05:22:18.767Z,7.93
2023-01-21T05:24:45.017Z,10.20
2023-01-21T05:27:11.291Z,8.60
2023-01-21T05:29:37.579Z,8.10
2023-01-21T05:32:03.926Z,7.18
2023-01-21T05:34:30.176Z,8.57
2023-01-21T05:36:56.417Z,7.88
2023-01-21T05:39:22.696Z,6.43
2023-01-21T05:41:48.995Z,6.65
2023-01-21T05:44:17.577Z,6.80
2023-01-21T05:46:44.076Z,8.55
2023-01-21T05:49:10.360Z,7.53
2023-01-21T05:51:36.653Z,6.72
2023-01-21T05:54:02.887Z,8.13
2023-01-21T05:56:29.163Z,8.65
2023-01-21T05:58:55.467Z,8.60
2023-01-21T06:01:21.744Z,6.30
2023-01-21T06:03:48.092Z,8.50
2023-01-21T06:06:14.399Z,9.45
2023-01-21T06:08:40.704Z,7.13
2023-01-21T06:11:07.021Z,9.88
2023-01-21T06:13:33.332Z,9.18
2023-01-21T06:15:59.706Z,8.38
2023-01-21T06:18:26.192Z,9.85
2023-01-21T06:20:52.494Z,9.05
2023-01-21T06:23:18.790Z,8.27
2023-01-21T06:25:45.303Z,5.85
2023-01-21T06:28:11.934Z,10.25
2023-01-21T06:30:38.244Z,9.10
2023-01-21T06:33:04.635Z,10.73
2023-01-21T06:35:30.995Z,7.40
2023-01-21T06:37:57.369Z,8.48
2023-01-21T06:40:23.625Z,11.68
2023-01-21T06:42:49.926Z,11.80
2023-01-21T06:45:16.723Z,8.93
2023-01-21T06:47:43.767Z,10.60
2023-01-21T06:50:14.627Z,11.80
2023-01-21T06:55:07.398Z,10.68
2023-01-21T06:57:33.703Z,12.35
2023-01-21T06:59:59.976Z,12.10
2023-01-21T07:02:26.417Z,10.32
2023-01-21T07:04:52.788Z,14.00
2023-01-21T07:07:19.268Z,11.45
2023-01-21T07:09:45.587Z,10.40
2023-01-21T07:12:11.811Z,11.88
2023-01-21T07:14:38.093Z,11.07
2023-01-21T07:17:04.419Z,12.85
2023-01-21T07:19:30.718Z,10.55
2023-01-21T07:21:56.999Z,12.80
2023-01-21T07:24:23.327Z,11.68
2023-01-21T07:26:49.661Z,13.63
2023-01-21T07:29:15.952Z,10.80
2023-01-21T07:31:42.297Z,10.73
2023-01-21T07:34:08.556Z,12.40
2023-01-21T07:36:34.834Z,12.40
2023-01-21T07:39:01.180Z,11.88
2023-01-21T07:41:27.531Z,11.30
2023-01-21T07:43:53.844Z,9.82
2023-01-21T07:46:20.817Z,8.73
2023-01-21T07:48:47.760Z,10.38
2023-01-21T07:51:14.103Z,11.02
2023-01-21T07:53:40.437Z,11.02
2023-01-21T07:56:07.385Z,12.07
2023-01-21T07:58:33.924Z,10.80
2023-01-21T08:01:02.759Z,12.02
2023-01-21T08:03:29.057Z,12.25
2023-01-21T08:05:55.356Z,10.60
2023-01-21T08:08:21.656Z,8.57
2023-01-21T08:10:55.151Z,9.35
2023-01-21T08:13:21.794Z,12.75
2023-01-21T08:15:55.372Z,7.30
2023-01-21T08:18:22.516Z,9.85
2023-01-21T08:20:49.046Z,11.10
2023-01-21T08:23:15.370Z,11.80
2023-01-21T08:25:41.764Z,11.57
2023-01-21T08:28:08.034Z,11.05
2023-01-21T08:30:34.265Z,7.40
2023-01-21T08:33:00.610Z,10.30
2023-01-21T08:35:26.921Z,12.18
2023-01-21T08:37:57.522Z,11.23
2023-01-21T08:40:26.264Z,12.40
2023-01-21T08:43:02.568Z,11.40
2023-01-21T08:45:29.023Z,7.45
2023-01-21T08:47:55.651Z,10.48
2023-01-21T08:50:22.260Z,9.80
2023-01-21T08:52:52.219Z,10.32
2023-01-21T08:55:19.092Z,9.43
2023-01-21T08:57:45.541Z,8.98
2023-01-21T09:00:12.336Z,9.52
2023-01-21T09:02:38.624Z,9.95
2023-01-21T09:05:05.127Z,11.13
2023-01-21T09:07:31.398Z,10.18
2023-01-21T09:09:57.675Z,11.07
2023-01-21T09:12:23.968Z,10.80
2023-01-21T09:14:50.251Z,8.57
2023-01-21T09:17:16.485Z,11.90
2023-01-21T09:19:42.823Z,10.45
2023-01-21T09:22:09.415Z,12.02
2023-01-21T09:24:35.734Z,10.00
2023-01-21T09:27:02.077Z,10.68
2023-01-21T09:29:29.452Z,9.32
2023-01-21T09:31:55.782Z,10.88
2023-01-21T09:34:22.124Z,10.10
2023-01-21T09:36:48.393Z,10.05
2023-01-21T09:39:14.651Z,10.10
2023-01-21T09:41:46.084Z,10.00
2023-01-21T09:44:15.133Z,9.38
2023-01-21T09:46:47.423Z,10.20
2023-01-21T09:49:17.419Z,10.07
2023-01-21T09:51:52.260Z,10.75
2023-01-21T09:54:25.452Z,10.90
2023-01-21T09:56:51.718Z,11.35
2023-01-21T09:59:22.184Z,8.93
2023-01-21T10:01:49.857Z,10.85
2023-01-21T10:04:19.228Z,9.98
2023-01-21T10:06:49.679Z,10.02
2023-01-21T10:09:28.305Z,11.30
2023-01-21T10:12:13.126Z,9.82
2023-01-21T10:14:54.623Z,9.02
2023-01-21T10:17:39.688Z,12.52
2023-01-21T10:20:11.838Z,11.38
2023-01-21T10:22:39.664Z,10.35
2023-01-21T10:25:29.155Z,9.75
2023-01-21T10:27:58.223Z,10.38
2023-01-21T10:30:27.408Z,11.02
2023-01-21T10:32:55.186Z,10.38
2023-01-21T10:35:28.624Z,11.13
2023-01-21T10:38:02.350Z,12.23
2023-01-21T10:40:44.253Z,10.50
2023-01-21T10:43:21.440Z,10.40
2023-01-21T10:46:07.979Z,8.25
2023-01-21T10:48:56.526Z,9.13
2023-01-21T10:51:28.437Z,10.13
2023-01-21T10:53:56.732Z,10.80
2023-01-21T10:56:23.150Z,8.95
2023-01-21T10:58:52.536Z,9.30
2023-01-21T11:01:25.409Z,10.27
2023-01-21T11:03:57.105Z,7.30
2023-01-21T11:06:24.356Z,12.40
2023-01-21T11:09:02.812Z,10.32
2023-01-21T11:11:30.990Z,11.63
2023-01-21T11:13:57.325Z,11.75
2023-01-21T11:16:32.569Z,8.43
2023-01-21T11:18:58.946Z,11.93
2023-01-21T11:21:25.686Z,12.40
2023-01-21T11:23:56.292Z,11.73
2023-01-21T11:26:28.756Z,12.05
2023-01-21T11:29:13.969Z,10.15
2023-01-21T11:31:41.572Z,10.93
2023-01-21T11:34:13.415Z,11.38
2023-01-21T11:36:53.404Z,9.95
2023-01-21T11:39:22.542Z,11.02
2023-01-21T11:41:54.346Z,11.60
2023-01-21T11:44:21.386Z,11.60
2023-01-21T11:46:47.729Z,10.73
2023-01-21T11:49:21.945Z,13.38
2023-01-21T11:51:48.264Z,12.98
2023-01-21T11:54:14.580Z,10.27
2023-01-21T11:56:44.793Z,12.32
2023-01-21T11:59:21.285Z,12.40
2023-01-21T12:01:51.776Z,9.65
2023-01-21T12:04:18.101Z,11.50
2023-01-21T12:06:48.329Z,10.68
2023-01-21T12:09:17.643Z,8.97
2023-01-21T12:11:45.822Z,9.73
2023-01-21T12:14:20.178Z,9.35
2023-01-21T12:17:05.438Z,11.50
2023-01-21T12:19:34.483Z,10.73
2023-01-21T12:22:00.723Z,10.07
2023-01-21T12:24:27.127Z,11.15
2023-01-21T12:27:01.078Z,10.35
2023-01-21T12:29:32.859Z,9.43
2023-01-21T12:32:02.056Z,11.15
2023-01-21T12:34:40.428Z,8.50
2023-01-21T12:37:11.380Z,6.75
2023-01-21T12:42:12.856Z,9.77
2023-01-21T12:44:53.716Z,10.38
2023-01-21T12:47:27.586Z,7.75
2023-01-21T12:49:59.990Z,10.40
2023-01-21T12:52:45.195Z,7.60
2023-01-21T12:55:11.426Z,6.18
2023-01-21T12:57:41.043Z,11.45
2023-01-21T13:00:16.886Z,8.73
2023-01-21T13:02:52.451Z,9.25
2023-01-21T13:05:21.747Z,9.93
2023-01-21T13:08:15.406Z,8.02
2023-01-21T13:10:44.081Z,7.65
2023-01-21T13:13:10.323Z,11.13
2023-01-21T13:15:38.244Z,9.38
2023-01-21T13:18:09.670Z,7.93
2023-01-21T13:20:38.709Z,5.80
2023-01-21T13:23:17.227Z,10.55
2023-01-21T13:25:53.526Z,10.98
2023-01-21T13:28:35.095Z,9.50
2023-01-21T13:31:40.563Z,7.90
2023-01-21T13:34:12.721Z,6.10
2023-01-21T13:36:41.978Z,7.85
2023-01-21T13:39:17.703Z,6.18
2023-01-21T13:41:43.915Z,7.43
2023-01-21T13:44:24.497Z,7.55
2023-01-21T13:47:02.767Z,10.07
2023-01-21T13:49:32.235Z,8.43
2023-01-21T13:52:16.891Z,8.32
2023-01-21T13:54:52.480Z,9.05
2023-01-21T13:57:18.772Z,5.35
2023-01-21T13:59:48.770Z,9.15
2023-01-21T14:02:18.814Z,7.95
2023-01-21T14:04:48.108Z,5.90
2023-01-21T14:07:32.875Z,7.72
2023-01-21T14:10:02.194Z,9.35
2023-01-21T14:12:31.411Z,8.77
2023-01-21T14:14:57.685Z,5.57
2023-01-21T14:17:27.045Z,4.75
2023-01-21T14:20:09.637Z,6.55
2023-01-21T14:22:35.966Z,7.40
2023-01-21T14:25:02.286Z,6.40
2023-01-21T14:27:36.350Z,9.05
2023-01-21T14:30:13.133Z,6.78
2023-01-21T14:32:41.444Z,6.53
2023-01-21T14:35:07.693Z,4.47
2023-01-21T14:37:44.517Z,5.70
2023-01-21T14:40:16.889Z,3.70
2023-01-21T14:42:50.299Z,6.03
2023-01-21T14:45:19.224Z,5.50
2023-01-21T14:47:47.083Z,5.88
2023-01-21T14:50:33.334Z,6.28
2023-01-21T14:52:59.579Z,2.33
2023-01-21T14:55:30.600Z,4.70
2023-01-21T15:00:26.664Z,2.95
2023-01-21T15:02:54.974Z,7.53
2023-01-21T15:05:24.335Z,5.07
2023-01-21T15:07:58.305Z,4.50
2023-01-21T15:10:33.005Z,6.43
2023-01-21T15:13:03.265Z,8.75
2023-01-21T15:15:31.709Z,4.37
2023-01-21T15:18:04.984Z,2.92
2023-01-21T15:20:49.694Z,5.30
2023-01-21T15:23:20.637Z,3.42
2023-01-21T15:28:22.027Z,4.75
2023-01-21T15:30:59.091Z,6.93
2023-01-21T15:33:26.185Z,7.47
2023-01-21T15:35:54.035Z,2.67
2023-01-21T15:38:20.481Z,7.65
2023-01-21T15:40:51.684Z,7.07
2023-01-21T15:43:37.202Z,5.78
2023-01-21T15:46:22.786Z,5.80
2023-01-21T15:48:58.050Z,5.82
2023-01-21T15:51:47.779Z,7.18
2023-01-21T15:54:17.182Z,6.03
2023-01-21T15:56:57.198Z,6.20
2023-01-21T15:59:42.199Z,4.22
2023-01-21T16:02:31.732Z,3.95
2023-01-21T16:05:07.224Z,5.88
2023-01-21T16:07:52.473Z,5.43
2023-01-21T16:10:34.537Z,3.13
2023-01-21T16:13:03.959Z,4.13
2023-01-21T16:15:33.287Z,6.50
2023-01-21T16:18:06.514Z,4.25
2023-01-21T16:20:33.470Z,6.45
2023-01-21T16:23:01.613Z,5.32
2023-01-21T16:25:27.911Z,5.60
2023-01-21T16:27:54.833Z,6.00
2023-01-21T16:30:31.037Z,5.35
2023-01-21T16:33:26.531Z,6.50
2023-01-21T16:35:54.685Z,4.53
2023-01-21T16:38:22.331Z,4.15
2023-01-21T16:40:49.849Z,3.92
2023-01-21T16:43:26.969Z,5.38
2023-01-21T16:46:01.114Z,5.47
2023-01-21T16:48:28.986Z,5.72
2023-01-21T16:50:55.598Z,6.72
2023-01-21T16:53:22.728Z,6.32
2023-01-21T16:55:51.093Z,6.03
2023-01-21T16:58:32.426Z,5.50
2023-01-21T17:01:06.098Z,5.70
2023-01-21T17:03:33.259Z,6.20
2023-01-21T17:06:01.977Z,5.53
2023-01-21T17:08:28.887Z,2.13
2023-01-21T17:11:00.056Z,5.22
2023-01-21T17:13:27.726Z,3.20
2023-01-21T17:15:58.117Z,2.53
2023-01-21T17:18:26.766Z,4.35
2023-01-21T17:21:13.323Z,4.85
2023-01-21T17:23:46.221Z,5.55
2023-01-21T17:26:23.892Z,4.55
2023-01-21T17:28:57.475Z,3.53
2023-01-21T17:31:28.239Z,4.72
2023-01-21T17:34:02.305Z,5.43
2023-01-21T17:36:36.245Z,3.08
2023-01-21T17:39:02.647Z,5.57
2023-01-21T17:41:31.967Z,4.50
2023-01-21T17:44:00.201Z,6.90
2023-01-21T17:46:26.970Z,2.92
2023-01-21T17:48:55.832Z,5.30
2023-01-21T17:51:24.464Z,3.13
2023-01-21T17:53:52.469Z,4.22
2023-01-21T17:56:33.901Z,7.57
2023-01-21T17:59:02.626Z,7.35
2023-01-21T18:01:29.710Z,3.30
2023-01-21T18:03:56.296Z,5.47
2023-01-21T18:06:25.069Z,6.13
2023-01-21T18:08:52.774Z,6.60
2023-01-21T18:11:19.097Z,5.60
2023-01-21T18:13:45.351Z,5.68
2023-01-21T18:16:11.755Z,5.13
2023-01-21T18:18:38.645Z,5.05
2023-01-21T18:21:05.286Z,8.13
2023-01-21T18:23:31.585Z,7.32
2023-01-21T18:25:58.336Z,5.97
2023-01-21T18:28:26.648Z,4.30
2023-01-21T18:30:57.308Z,6.55
2023-01-21T18:33:24.124Z,6.13
2023-01-21T18:35:51.287Z,4.22
2023-01-21T18:38:21.385Z,6.78
2023-01-21T18:40:48.344Z,8.93
2023-01-21T18:43:14.698Z,10.75
2023-01-21T18:45:40.957Z,10.30
2023-01-21T18:48:14.151Z,6.07
2023-01-21T18:50:40.438Z,7.30
2023-01-21T18:53:07.889Z,7.90
2023-01-21T18:55:34.250Z,5.25
2023-01-21T18:58:02.384Z,7.70
2023-01-21T19:00:32.661Z,7.35
2023-01-21T19:02:59.536Z,8.60
2023-01-21T19:05:36.415Z,8.13
2023-01-21T19:08:02.782Z,7.07
2023-01-21T19:10:29.043Z,6.70
2023-01-21T19:12:55.255Z,7.30
2023-01-21T19:15:23.228Z,7.00
2023-01-21T19:17:50.584Z,7.32
2023-01-21T19:20:27.889Z,7.70
2023-01-21T19:22:55.038Z,7.80
2023-01-21T19:25:23.026Z,10.27
2023-01-21T19:27:50.145Z,8.82
2023-01-21T19:30:18.341Z,7.68
2023-01-21T19:32:46.423Z,8.60
2023-01-21T19:35:13.788Z,7.53
2023-01-21T19:37:40.781Z,7.15
2023-01-21T19:40:17.706Z,8.23
2023-01-21T19:42:44.627Z,7.47
2023-01-21T19:45:11.406Z,7.45
2023-01-21T19:47:39.494Z,8.63
2023-01-21T19:50:06.410Z,7.05
2023-01-21T19:52:33.499Z,7.68
2023-01-21T19:54:59.857Z,6.78
2023-01-21T19:57:26.145Z,8.20
2023-01-21T19:59:52.810Z,8.68
2023-01-21T20:02:19.165Z,7.28
2023-01-21T20:04:45.525Z,7.88
2023-01-21T20:07:15.287Z,5.32
2023-01-21T20:09:41.598Z,8.30
2023-01-21T20:12:09.652Z,6.90
2023-01-21T20:14:35.894Z,9.23
2023-01-21T20:17:02.942Z,8.27
2023-01-21T20:19:29.223Z,4.15
2023-01-21T20:22:01.987Z,4.05
2023-01-21T20:24:30.296Z,6.97
2023-01-21T20:26:57.037Z,6.47
2023-01-21T20:29:23.371Z,7.25
2023-01-21T20:31:51.852Z,8.10
2023-01-21T20:34:18.287Z,6.95
2023-01-21T20:36:48.241Z,7.95
2023-01-21T20:39:14.807Z,7.47
2023-01-21T20:41:43.223Z,6.22
2023-01-21T20:44:09.521Z,7.10
2023-01-21T20:46:35.808Z,10.68
2023-01-21T20:49:02.404Z,8.23
2023-01-21T20:51:28.813Z,7.00
2023-01-21T20:53:55.282Z,6.18
2023-01-21T20:56:24.710Z,6.50
2023-01-21T20:58:50.984Z,8.18
2023-01-21T21:01:18.350Z,6.95
2023-01-21T21:03:44.999Z,6.45
2023-01-21T21:06:20.577Z,9.88
2023-01-21T21:08:47.589Z,7.85
2023-01-21T21:11:14.798Z,9.55
2023-01-21T21:13:41.133Z,9.00
2023-01-21T21:16:18.830Z,9.15
2023-01-21T21:18:48.489Z,9.88
2023-01-21T21:21:15.481Z,7.22
2023-01-21T21:23:41.736Z,6.93
2023-01-21T21:26:15.176Z,10.23
2023-01-21T21:28:41.411Z,8.75
2023-01-21T21:31:11.064Z,6.60
2023-01-21T21:33:37.384Z,8.52
2023-01-21T21:36:03.745Z,7.28
2023-01-21T21:38:30.037Z,9.93
2023-01-21T21:41:16.324Z,8.35
2023-01-21T21:43:42.613Z,9.23
2023-01-21T21:46:28.235Z,8.60
2023-01-21T21:48:54.490Z,9.15
2023-01-21T21:51:24.113Z,8.63
2023-01-21T21:53:50.868Z,9.90
2023-01-21T21:56:21.132Z,9.00
2023-01-21T21:58:47.945Z,9.63
2023-01-21T22:01:24.286Z,9.43
2023-01-21T22:03:50.897Z,7.38
2023-01-21T22:06:18.152Z,7.57
2023-01-21T22:08:44.636Z,6.90
2023-01-21T22:11:13.719Z,6.97
2023-01-21T22:13:40.397Z,5.68
2023-01-21T22:16:10.519Z,6.63
2023-01-21T22:18:36.903Z,4.03
2023-01-21T22:21:04.810Z,7.20
2023-01-21T22:23:31.586Z,8.30
2023-01-21T22:26:00.150Z,7.72
2023-01-21T22:28:26.577Z,6.70
2023-01-21T22:30:53.124Z,6.93
2023-01-21T22:33:21.247Z,7.05
2023-01-21T22:35:47.606Z,6.22
2023-01-21T22:38:13.958Z,7.88
2023-01-21T22:40:40.211Z,6.25
2023-01-21T22:43:07.317Z,7.13
2023-01-21T22:45:33.935Z,6.28
2023-01-21T22:48:01.223Z,8.40
2023-01-21T22:50:28.155Z,5.25
2023-01-21T22:52:54.432Z,6.82
2023-01-21T22:55:20.682Z,7.60
2023-01-21T22:57:46.958Z,7.70
2023-01-21T23:00:30.599Z,6.90
2023-01-21T23:02:56.836Z,7.05
2023-01-21T23:05:23.183Z,9.50
2023-01-21T23:07:49.523Z,6.85
2023-01-21T23:10:16.295Z,6.10
2023-01-21T23:12:42.820Z,7.60
2023-01-21T23:15:09.252Z,6.68
2023-01-21T23:17:35.536Z,7.70
2023-01-21T23:20:01.815Z,7.60
2023-01-21T23:22:28.055Z,7.95
2023-01-21T23:24:54.358Z,6.43
2023-01-21T23:27:20.703Z,7.32
2023-01-21T23:29:46.986Z,8.65
2023-01-21T23:32:13.214Z,7.97
2023-01-21T23:34:39.439Z,7.68
2023-01-21T23:37:05.701Z,6.57
2023-01-21T23:39:31.989Z,7.20
2023-01-21T23:41:58.293Z,6.88
2023-01-21T23:44:25.443Z,8.50
2023-01-21T23:46:52.187Z,6.70
2023-01-21T23:49:18.753Z,6.50
2023-01-21T23:51:46.011Z,6.80
2023-01-21T23:54:12.933Z,6.40
2023-01-21T23:56:39.291Z,8.38
2023-01-21T23:59:06.316Z,6.47
